Terminal Aerodrome Forecast
Issued by NWS

Home | Current Version | Previous Version | Text Only | Print | Product List | Glossary On
Versions: 1 2 3 4 5 6 7 8 9 10 11 12 13 14 15 16
000
FTUS45 KPSR 020114 AAA
TAFBLH
TAF AMD
KBLH 020114Z 0201/0224 15008KT P6SM FEW250
     FM020300 23012KT P6SM FEW250
     FM020800 32005KT P6SM BKN250
     FM021800 33012G16KT P6SM BKN250=

USA.gov is the U.S. government's official web portal to all federal, state and local government web resources and services.